createdAt,value
2023-02-19T09:52:03.752Z,95.17
2023-02-19T09:53:04.368Z,94.96
2023-02-19T09:53:58.341Z,94.85
2023-02-19T09:54:58.278Z,94.85
2023-02-19T09:55:58.422Z,94.75
2023-02-19T09:56:58.266Z,94.85
2023-02-19T09:57:58.258Z,94.96
2023-02-19T09:58:58.286Z,94.96
2023-02-19T09:59:58.241Z,94.96
2023-02-19T10:00:58.216Z,95.06
2023-02-19T10:01:58.199Z,95.17
2023-02-19T10:02:58.181Z,95.37
2023-02-19T10:03:58.209Z,95.37
2023-02-19T10:04:58.173Z,95.47
2023-02-19T10:05:58.150Z,95.78
2023-02-19T10:06:58.125Z,95.98
2023-02-19T10:07:58.117Z,96.19
2023-02-19T10:08:58.117Z,96.59
2023-02-19T10:09:58.103Z,96.80
2023-02-19T10:10:58.073Z,97.11
2023-02-19T10:11:58.093Z,97.31
2023-02-19T10:12:58.048Z,97.31
2023-02-19T10:13:58.065Z,97.97
2023-02-19T10:14:58.040Z,98.18
2023-02-19T10:15:58.030Z,98.38
2023-02-19T10:16:58.004Z,98.49
2023-02-19T10:17:58.005Z,98.69
2023-02-19T10:18:57.972Z,98.79
2023-02-19T10:19:57.961Z,98.90
2023-02-19T10:20:57.959Z,98.65
2023-02-19T10:21:57.940Z,98.65
2023-02-19T10:22:57.952Z,98.33
2023-02-19T10:23:57.913Z,98.54
2023-02-19T10:24:57.915Z,98.13
2023-02-19T10:25:57.903Z,98.24
2023-02-19T10:26:57.874Z,98.33
2023-02-19T10:27:57.883Z,98.24
2023-02-19T10:28:57.847Z,98.13
2023-02-19T10:29:57.860Z,98.13
2023-02-19T10:30:57.880Z,97.52
2023-02-19T10:31:57.968Z,97.37
2023-02-19T10:32:57.804Z,96.66
2023-02-19T10:33:58.005Z,95.84
2023-02-19T10:34:57.778Z,95.84
2023-02-19T10:35:57.792Z,95.94
2023-02-19T10:36:57.759Z,95.84
2023-02-19T10:37:57.777Z,95.84
2023-02-19T10:38:57.781Z,95.63
2023-02-19T10:39:57.716Z,95.73
2023-02-19T10:40:57.701Z,95.63
2023-02-19T10:41:57.717Z,95.73
2023-02-19T10:42:57.673Z,95.67
2023-02-19T10:43:57.688Z,95.47
2023-02-19T10:44:57.650Z,95.22
2023-02-19T10:45:57.651Z,94.81
2023-02-19T10:46:57.641Z,94.51
2023-02-19T10:47:57.622Z,94.36
2023-02-19T10:48:57.643Z,93.95
2023-02-19T10:49:57.614Z,93.50
2023-02-19T10:50:57.576Z,92.78
2023-02-19T10:51:57.579Z,92.37
2023-02-19T10:52:57.558Z,92.47
2023-02-19T10:53:58.104Z,92.47
2023-02-19T10:54:57.545Z,92.54
2023-02-19T10:55:57.524Z,91.78
2023-02-19T10:56:57.512Z,91.12
2023-02-19T10:57:57.493Z,89.90
2023-02-19T10:58:57.493Z,89.39
2023-02-19T10:59:57.474Z,89.59
2023-02-19T11:00:57.461Z,89.59
2023-02-19T11:01:57.568Z,89.39
2023-02-19T11:02:57.422Z,89.39
2023-02-19T11:03:57.445Z,89.88
2023-02-19T11:04:57.419Z,91.15
2023-02-19T11:05:57.406Z,91.56
2023-02-19T11:06:57.413Z,91.82
2023-02-19T11:07:57.379Z,91.61
2023-02-19T11:08:57.372Z,91.72
2023-02-19T11:09:57.344Z,91.72
2023-02-19T11:10:57.327Z,91.52
2023-02-19T11:11:57.311Z,91.61
2023-02-19T11:12:57.303Z,91.35
2023-02-19T11:13:57.301Z,91.82
2023-02-19T11:14:57.260Z,91.20
2023-02-19T11:15:57.312Z,91.20
2023-02-19T11:16:57.243Z,90.39
2023-02-19T11:17:57.235Z,90.49
2023-02-19T11:18:57.460Z,90.08
2023-02-19T11:19:57.231Z,90.29
2023-02-19T11:20:57.236Z,89.67
2023-02-19T11:21:57.196Z,89.53
2023-02-19T11:22:57.204Z,88.96
2023-02-19T11:23:57.171Z,89.47
2023-02-19T11:24:59.399Z,90.02
2023-02-19T11:25:57.135Z,91.25
2023-02-19T11:26:57.106Z,91.56
2023-02-19T11:27:57.109Z,91.50
2023-02-19T11:28:57.131Z,91.70
2023-02-19T11:29:57.069Z,91.09
2023-02-19T11:30:57.054Z,90.53
2023-02-19T11:31:57.145Z,89.61
2023-02-19T11:32:57.064Z,89.41
2023-02-19T11:33:57.070Z,89.41
2023-02-19T11:34:57.008Z,89.20
2023-02-19T11:35:57.035Z,89.11
2023-02-19T11:36:56.987Z,89.41
2023-02-19T11:37:56.971Z,89.51
2023-02-19T11:38:57.001Z,89.72
2023-02-19T11:39:56.955Z,89.31
2023-02-19T11:40:56.940Z,89.20
2023-02-19T11:41:56.923Z,89.58
2023-02-19T11:42:56.932Z,89.11
2023-02-19T11:43:56.923Z,88.96
2023-02-19T11:44:56.873Z,88.65
2023-02-19T11:45:56.879Z,88.59
2023-02-19T11:46:56.849Z,88.24
2023-02-19T11:47:56.891Z,88.14
2023-02-19T11:48:56.872Z,88.24
2023-02-19T11:49:56.826Z,88.65
2023-02-19T11:50:56.799Z,88.55
2023-02-19T11:51:56.787Z,87.90
2023-02-19T11:52:56.801Z,87.14
2023-02-19T11:53:56.906Z,86.83
2023-02-19T11:54:56.777Z,86.94
2023-02-19T11:55:56.775Z,87.45
2023-02-19T11:56:56.743Z,87.85
2023-02-19T11:57:56.702Z,87.35
2023-02-19T11:58:57.648Z,86.59
2023-02-19T11:59:56.697Z,85.43
2023-02-19T12:00:56.667Z,84.34
2023-02-19T12:01:56.680Z,84.39
2023-02-19T12:02:56.651Z,85.35
2023-02-19T12:03:56.665Z,85.96
2023-02-19T12:04:56.643Z,86.33
2023-02-19T12:05:56.600Z,86.06
2023-02-19T12:06:56.594Z,86.26
2023-02-19T12:07:56.579Z,86.16
2023-02-19T12:08:56.594Z,86.77
2023-02-19T12:09:56.564Z,87.29
2023-02-19T12:10:56.549Z,86.77
2023-02-19T12:11:56.521Z,86.10
2023-02-19T12:12:56.505Z,86.61
2023-02-19T12:13:56.567Z,86.41
2023-02-19T12:14:56.497Z,86.26
2023-02-19T12:15:56.487Z,86.16
2023-02-19T12:16:56.461Z,86.16
2023-02-19T12:17:56.454Z,86.26
2023-02-19T12:18:56.439Z,86.26
2023-02-19T12:19:56.465Z,86.57
2023-02-19T12:20:56.415Z,86.47
2023-02-19T12:21:56.392Z,86.16
2023-02-19T12:22:56.389Z,85.45
2023-02-19T12:23:56.374Z,85.55
2023-02-19T12:24:56.427Z,86.26
2023-02-19T12:25:56.357Z,86.06
2023-02-19T12:26:56.341Z,86.10
2023-02-19T12:27:56.331Z,85.79
2023-02-19T12:28:56.310Z,85.59
2023-02-19T12:29:56.372Z,85.69
2023-02-19T12:30:56.315Z,86.10
2023-02-19T12:31:56.353Z,86.10
2023-02-19T12:32:56.249Z,85.69
2023-02-19T12:33:56.254Z,85.89
2023-02-19T12:34:56.258Z,86.00
2023-02-19T12:35:56.271Z,85.79
2023-02-19T12:36:56.226Z,85.89
2023-02-19T12:37:56.207Z,86.00
2023-02-19T12:38:56.194Z,86.10
2023-02-19T12:39:56.244Z,86.41
2023-02-19T12:40:56.177Z,86.51
2023-02-19T12:41:56.167Z,86.30
2023-02-19T12:42:56.160Z,86.41
2023-02-19T12:43:56.169Z,85.79
2023-02-19T12:44:56.169Z,85.89
2023-02-19T12:45:56.159Z,86.10
2023-02-19T12:46:56.089Z,86.41
2023-02-19T12:47:56.066Z,86.20
2023-02-19T12:48:56.089Z,86.20
2023-02-19T12:49:56.070Z,86.20
2023-02-19T12:50:56.040Z,85.89
2023-02-19T12:51:56.025Z,85.79
2023-02-19T12:52:56.022Z,85.86
2023-02-19T12:53:56.038Z,85.65
2023-02-19T12:54:56.097Z,85.41
2023-02-19T12:55:56.048Z,85.21
2023-02-19T12:56:55.977Z,85.41
2023-02-19T12:57:55.962Z,85.71
2023-02-19T12:58:55.989Z,85.71
2023-02-19T12:59:55.940Z,85.61
2023-02-19T13:00:55.966Z,85.65
2023-02-19T13:01:55.913Z,85.75
2023-02-19T13:02:55.875Z,85.61
2023-02-19T13:03:55.885Z,85.35
2023-02-19T13:04:55.889Z,85.21
2023-02-19T13:05:56.113Z,84.83
2023-02-19T13:06:55.834Z,84.94
2023-02-19T13:07:55.844Z,85.24
2023-02-19T13:09:06.291Z,85.24
2023-02-19T13:09:55.829Z,84.94
2023-02-19T13:10:55.880Z,84.53
2023-02-19T13:11:55.766Z,84.53
2023-02-19T13:12:55.773Z,84.39
2023-02-19T13:13:55.758Z,84.18
2023-02-19T13:14:55.754Z,83.78
2023-02-19T13:15:55.720Z,83.78
2023-02-19T13:16:55.775Z,84.18
2023-02-19T13:17:55.698Z,84.28
2023-02-19T13:18:55.742Z,84.42
2023-02-19T13:19:55.696Z,84.83
2023-02-19T13:20:55.697Z,84.42
2023-02-19T13:21:55.649Z,84.63
2023-02-19T13:22:55.651Z,84.59
2023-02-19T13:23:55.629Z,84.53
2023-02-19T13:24:55.632Z,84.49
2023-02-19T13:25:57.532Z,84.59
2023-02-19T13:26:55.584Z,84.83
2023-02-19T13:27:55.576Z,85.24
2023-02-19T13:28:55.597Z,85.35
2023-02-19T13:29:55.546Z,85.21
2023-02-19T13:30:55.725Z,85.30
2023-02-19T13:31:55.608Z,85.75
2023-02-19T13:32:55.518Z,86.06
2023-02-19T13:33:55.484Z,86.36
2023-02-19T13:34:55.487Z,86.57
2023-02-19T13:35:55.477Z,86.98
2023-02-19T13:36:55.462Z,87.63
2023-02-19T13:37:55.457Z,88.24
2023-02-19T13:38:55.478Z,89.41
2023-02-19T13:39:55.411Z,90.43
2023-02-19T13:40:55.404Z,91.15
2023-02-19T13:41:55.397Z,91.80
2023-02-19T13:42:55.387Z,92.87
2023-02-19T13:43:55.372Z,93.07
2023-02-19T13:44:57.883Z,93.84
2023-02-19T13:45:55.351Z,95.26
2023-02-19T13:46:55.340Z,96.23
2023-02-19T13:47:55.355Z,97.15
2023-02-19T13:48:55.329Z,97.77
2023-02-19T13:49:55.307Z,98.33
2023-02-19T13:50:55.283Z,98.63
2023-02-19T13:51:55.255Z,98.74
2023-02-19T13:52:55.266Z,98.78
2023-02-19T13:53:55.257Z,98.99
2023-02-19T13:54:55.217Z,99.29
2023-02-19T13:55:55.242Z,99.40
2023-02-19T13:56:55.207Z,99.40
2023-02-19T13:57:55.185Z,99.50
2023-02-19T13:58:55.217Z,99.80
2023-02-19T13:59:55.188Z,99.80
2023-02-19T14:00:55.207Z,99.99
2023-02-19T14:01:55.129Z,99.99
2023-02-19T14:02:55.120Z,99.99
2023-02-19T14:03:55.117Z,99.99
2023-02-19T14:04:55.125Z,99.99
2023-02-19T14:05:55.148Z,99.99
2023-02-19T14:06:55.073Z,99.99
2023-02-19T14:07:55.075Z,99.99
2023-02-19T14:08:55.063Z,99.99
2023-02-19T14:09:55.058Z,99.99
2023-02-19T14:10:55.036Z,99.99
2023-02-19T14:11:55.027Z,99.99
2023-02-19T14:12:55.010Z,99.99
2023-02-19T14:13:55.017Z,99.99
2023-02-19T14:14:54.956Z,99.99
2023-02-19T14:15:55.094Z,99.99
2023-02-19T14:16:54.996Z,99.99
2023-02-19T14:17:54.945Z,99.99
2023-02-19T14:18:54.971Z,99.99
2023-02-19T14:19:54.897Z,99.99
2023-02-19T14:20:54.931Z,99.99
2023-02-19T14:21:54.893Z,99.99
2023-02-19T14:22:54.871Z,99.99
2023-02-19T14:23:54.859Z,99.99
2023-02-19T14:24:54.848Z,99.99
2023-02-19T14:25:54.841Z,99.99
2023-02-19T14:26:54.831Z,99.99
2023-02-19T14:27:54.799Z,99.99
2023-02-19T14:28:54.788Z,99.99
2023-02-19T14:29:54.808Z,99.99
2023-02-19T14:30:54.800Z,99.96
2023-02-19T14:31:55.000Z,99.86
2023-02-19T14:33:09.811Z,99.50
2023-02-19T14:33:54.742Z,99.55
2023-02-19T14:34:54.714Z,99.76
2023-02-19T14:35:54.696Z,99.86
2023-02-19T14:36:54.713Z,99.91
2023-02-19T14:37:54.669Z,99.99
2023-02-19T14:38:54.684Z,99.99
2023-02-19T14:39:54.648Z,99.99
2023-02-19T14:40:54.641Z,99.99
2023-02-19T14:41:54.671Z,99.99
2023-02-19T14:42:56.870Z,99.99
2023-02-19T14:43:54.622Z,99.99
2023-02-19T14:44:54.632Z,99.99
2023-02-19T14:45:54.567Z,99.99
2023-02-19T14:46:54.565Z,99.99
2023-02-19T14:47:54.604Z,99.99
2023-02-19T14:48:54.580Z,99.99
2023-02-19T14:49:54.568Z,99.99
2023-02-19T14:50:54.507Z,99.99
2023-02-19T14:51:54.565Z,99.99
2023-02-19T14:52:54.484Z,99.99
2023-02-19T14:53:54.469Z,99.99
2023-02-19T14:54:54.461Z,99.99
2023-02-19T14:55:54.475Z,99.99
2023-02-19T14:56:54.456Z,99.99
2023-02-19T14:57:54.407Z,99.99
2023-02-19T14:58:54.455Z,99.99
2023-02-19T14:59:54.384Z,99.99
2023-02-19T15:00:54.375Z,99.99
2023-02-19T15:01:54.451Z,99.99
2023-02-19T15:02:54.371Z,99.99
2023-02-19T15:03:54.352Z,99.99
2023-02-19T15:04:54.396Z,99.99
2023-02-19T15:05:54.308Z,99.99
2023-02-19T15:06:54.299Z,99.99
2023-02-19T15:07:54.334Z,99.99
2023-02-19T15:08:54.294Z,99.99
2023-02-19T15:09:54.269Z,99.99
2023-02-19T15:10:54.251Z,99.99
2023-02-19T15:11:54.246Z,99.99
2023-02-19T15:12:54.237Z,99.99
2023-02-19T15:13:54.219Z,99.99
2023-02-19T15:14:54.198Z,99.99
2023-02-19T15:15:54.217Z,99.99
2023-02-19T15:16:54.180Z,99.66
2023-02-19T15:17:54.194Z,99.25
2023-02-19T15:18:54.179Z,99.15
2023-02-19T15:19:54.132Z,98.83
2023-02-19T15:20:54.126Z,98.74
2023-02-19T15:21:54.101Z,98.53
2023-02-19T15:22:54.165Z,98.63
2023-02-19T15:23:54.095Z,98.74
2023-02-19T15:24:54.074Z,98.83
2023-02-19T15:25:54.066Z,98.94
2023-02-19T15:26:54.075Z,98.83
2023-02-19T15:27:54.048Z,98.94
2023-02-19T15:28:54.048Z,98.83
2023-02-19T15:29:54.036Z,98.94
2023-02-19T15:30:54.033Z,98.94
2023-02-19T15:31:54.117Z,98.94
2023-02-19T15:32:53.998Z,99.04
2023-02-19T15:33:54.013Z,99.29
2023-02-19T15:34:53.944Z,99.55
2023-02-19T15:35:53.959Z,99.70
2023-02-19T15:36:53.931Z,99.91
2023-02-19T15:37:53.942Z,99.99
2023-02-19T15:38:53.900Z,99.99
2023-02-19T15:39:53.902Z,99.99
2023-02-19T15:40:53.881Z,99.99
2023-02-19T15:41:53.851Z,99.99
2023-02-19T15:42:53.867Z,99.99
2023-02-19T15:43:53.866Z,99.99
2023-02-19T15:44:53.830Z,99.99
2023-02-19T15:45:53.812Z,99.99
2023-02-19T15:46:53.792Z,99.99
2023-02-19T15:47:53.781Z,99.99
2023-02-19T15:48:53.801Z,99.99
2023-02-19T15:49:53.770Z,99.99
2023-02-19T15:50:53.780Z,99.99
2023-02-19T15:51:53.730Z,99.99
2023-02-19T15:52:53.725Z,99.99
2023-02-19T15:53:53.732Z,99.99
2023-02-19T15:54:53.693Z,99.99
2023-02-19T15:56:46.549Z,99.99
2023-02-19T15:57:49.123Z,99.99
2023-02-19T15:58:47.537Z,99.99
2023-02-19T15:59:47.491Z,99.99
2023-02-19T16:00:47.495Z,99.99
2023-02-19T16:01:47.501Z,99.99
2023-02-19T16:02:47.527Z,99.99
2023-02-19T16:03:47.459Z,99.99
2023-02-19T16:04:47.457Z,99.99
2023-02-19T16:05:47.461Z,99.99
2023-02-19T16:06:47.435Z,99.99
2023-02-19T16:07:47.404Z,99.99
2023-02-19T16:08:47.383Z,99.95
2023-02-19T16:09:47.407Z,99.99
2023-02-19T16:10:47.351Z,99.85
2023-02-19T16:11:47.352Z,99.75
2023-02-19T16:12:47.339Z,99.75
2023-02-19T16:13:47.335Z,99.65
2023-02-19T16:14:47.353Z,99.65
2023-02-19T16:15:47.307Z,99.75
2023-02-19T16:16:47.299Z,99.65
2023-02-19T16:17:47.271Z,99.75
2023-02-19T16:18:47.257Z,99.85
2023-02-19T16:19:47.307Z,99.75
2023-02-19T16:20:47.313Z,99.54
2023-02-19T16:21:47.220Z,99.29
2023-02-19T16:22:47.207Z,99.19
2023-02-19T16:23:47.240Z,99.19
2023-02-19T16:24:47.200Z,99.09
2023-02-19T16:25:47.357Z,98.99
2023-02-19T16:26:47.172Z,98.99
2023-02-19T16:27:47.153Z,98.68
2023-02-19T16:28:47.138Z,98.47
2023-02-19T16:29:47.130Z,98.37
2023-02-19T16:30:47.359Z,98.16
2023-02-19T16:31:47.231Z,98.16
2023-02-19T16:32:47.092Z,98.16
2023-02-19T16:33:48.511Z,98.16
2023-02-19T16:34:47.078Z,97.96
2023-02-19T16:35:47.319Z,97.65
2023-02-19T16:36:47.050Z,97.55
2023-02-19T16:37:47.007Z,97.55
2023-02-19T16:38:47.016Z,97.45
2023-02-19T16:39:47.407Z,97.55
2023-02-19T16:40:47.002Z,97.55
2023-02-19T16:41:46.973Z,97.55
2023-02-19T16:42:46.980Z,97.45
2023-02-19T16:43:46.933Z,97.34
2023-02-19T16:44:46.975Z,97.04
2023-02-19T16:45:46.985Z,96.94
2023-02-19T16:46:46.926Z,96.73
2023-02-19T16:47:46.881Z,96.32
2023-02-19T16:48:46.924Z,96.12
2023-02-19T16:49:46.865Z,95.61
2023-02-19T16:50:46.842Z,95.50
2023-02-19T16:51:46.836Z,95.50
2023-02-19T16:52:46.811Z,95.81
2023-02-19T16:53:46.820Z,96.01
2023-02-19T16:54:46.789Z,96.26
2023-02-19T16:55:46.814Z,96.47
2023-02-19T16:56:46.789Z,96.57
2023-02-19T16:57:46.755Z,96.57
2023-02-19T16:58:46.762Z,96.67
2023-02-19T16:59:46.763Z,96.88
2023-02-19T17:00:46.753Z,96.98
2023-02-19T17:01:46.703Z,96.67
2023-02-19T17:02:46.699Z,96.67
2023-02-19T17:03:46.706Z,96.78
2023-02-19T17:04:46.684Z,96.82
2023-02-19T17:05:46.644Z,97.13
2023-02-19T17:06:46.640Z,97.44
2023-02-19T17:07:46.640Z,97.54
2023-02-19T17:08:46.621Z,97.44
2023-02-19T17:09:46.622Z,97.23
2023-02-19T17:10:46.588Z,96.92
2023-02-19T17:11:46.598Z,96.92
2023-02-19T17:12:46.566Z,96.31
2023-02-19T17:13:46.557Z,96.20
2023-02-19T17:14:46.568Z,96.41
2023-02-19T17:15:46.552Z,95.69
2023-02-19T17:16:46.570Z,95.59
2023-02-19T17:17:46.495Z,94.67
2023-02-19T17:18:46.535Z,93.13
2023-02-19T17:19:46.468Z,92.82
2023-02-19T17:20:47.445Z,91.28
2023-02-19T17:21:46.436Z,89.90
2023-02-19T17:22:46.449Z,89.50
2023-02-19T17:23:46.448Z,89.75
2023-02-19T17:24:46.527Z,89.95
2023-02-19T17:25:46.473Z,90.36
2023-02-19T17:26:46.438Z,90.36
2023-02-19T17:27:46.681Z,90.36
2023-02-19T17:28:46.439Z,90.05
2023-02-19T17:29:46.410Z,90.16
2023-02-19T17:30:46.378Z,90.16
2023-02-19T17:31:46.436Z,89.43
2023-02-19T17:32:46.362Z,89.03
2023-02-19T17:33:46.352Z,89.23
2023-02-19T17:34:46.379Z,89.13
2023-02-19T17:35:46.344Z,89.23
2023-02-19T17:36:46.323Z,89.64
2023-02-19T17:37:46.295Z,89.95
2023-02-19T17:38:46.294Z,90.16
2023-02-19T17:39:46.294Z,90.16
2023-02-19T17:40:46.255Z,90.36
2023-02-19T17:41:46.266Z,90.67
2023-02-19T17:42:46.268Z,90.40
2023-02-19T17:43:46.212Z,90.16
2023-02-19T17:44:46.235Z,90.46
2023-02-19T17:45:46.216Z,89.78
2023-02-19T17:46:46.200Z,88.86
2023-02-19T17:47:46.166Z,88.24
2023-02-19T17:48:46.161Z,87.94
2023-02-19T17:49:46.150Z,88.04
2023-02-19T17:50:46.140Z,87.94
2023-02-19T17:51:46.101Z,87.73
2023-02-19T17:52:46.099Z,87.84
2023-02-19T17:53:46.082Z,88.24
2023-02-19T17:54:46.201Z,88.45
2023-02-19T17:55:46.061Z,87.94
2023-02-19T17:56:46.076Z,88.35
2023-02-19T17:57:46.033Z,87.84
2023-02-19T17:58:46.034Z,87.53
2023-02-19T17:59:46.029Z,87.88
2023-02-19T18:00:45.992Z,88.08
2023-02-19T18:01:45.984Z,87.77
2023-02-19T18:02:45.981Z,87.12
2023-02-19T18:03:46.023Z,86.71
2023-02-19T18:04:45.970Z,86.91
2023-02-19T18:05:45.935Z,86.81
2023-02-19T18:06:45.923Z,86.71
2023-02-19T18:07:45.899Z,86.09
2023-02-19T18:08:45.899Z,86.30
2023-02-19T18:09:46.057Z,86.09
2023-02-19T18:10:45.882Z,85.47
2023-02-19T18:11:45.880Z,85.47
2023-02-19T18:12:45.877Z,85.27
2023-02-19T18:13:45.821Z,85.17
2023-02-19T18:14:45.854Z,85.06
2023-02-19T18:15:45.796Z,85.17
2023-02-19T18:16:47.622Z,85.47
2023-02-19T18:17:45.775Z,85.47
2023-02-19T18:18:45.779Z,85.68
2023-02-19T18:19:46.465Z,85.99
2023-02-19T18:20:45.742Z,85.99
2023-02-19T18:21:45.722Z,85.58
2023-02-19T18:22:45.745Z,85.68
2023-02-19T18:23:45.696Z,85.68
2023-02-19T18:24:45.720Z,85.89
2023-02-19T18:25:45.696Z,85.78
2023-02-19T18:26:45.665Z,85.82
2023-02-19T18:27:45.664Z,85.78
2023-02-19T18:28:45.639Z,85.78
2023-02-19T18:29:45.643Z,85.68
2023-02-19T18:30:45.816Z,85.82
2023-02-19T18:31:45.704Z,85.52
2023-02-19T18:32:45.576Z,85.31
2023-02-19T18:33:45.567Z,85.52
2023-02-19T18:34:45.568Z,85.21
2023-02-19T18:35:45.545Z,85.41
2023-02-19T18:36:45.536Z,85.31
2023-02-19T18:37:45.578Z,84.90
2023-02-19T18:38:45.640Z,84.80
2023-02-19T18:39:45.829Z,84.59
2023-02-19T18:40:45.473Z,85.00
2023-02-19T18:41:45.460Z,85.41
2023-02-19T18:42:45.459Z,85.41
2023-02-19T18:43:45.441Z,85.41
2023-02-19T18:44:45.449Z,85.52
2023-02-19T18:45:45.549Z,85.72
2023-02-19T18:46:45.429Z,85.86
2023-02-19T18:47:45.498Z,86.17
2023-02-19T18:48:45.544Z,86.07
2023-02-19T18:49:45.407Z,86.17
2023-02-19T18:50:45.372Z,86.38
2023-02-19T18:51:45.347Z,86.07
2023-02-19T18:52:45.336Z,86.17
2023-02-19T18:53:45.312Z,85.86
2023-02-19T18:54:45.334Z,86.17
2023-02-19T18:55:45.293Z,86.17
2023-02-19T18:56:45.294Z,85.97
2023-02-19T18:57:45.267Z,86.17
2023-02-19T18:58:45.244Z,86.17
2023-02-19T18:59:45.311Z,86.58
2023-02-19T19:00:45.218Z,86.58
2023-02-19T19:01:45.266Z,86.79
2023-02-19T19:02:49.822Z,86.68
2023-02-19T19:03:45.193Z,86.89
2023-02-19T19:04:45.191Z,87.20
2023-02-19T19:05:45.161Z,87.30
2023-02-19T19:06:45.151Z,87.20
2023-02-19T19:07:45.137Z,87.20
2023-02-19T19:08:45.122Z,87.20
2023-02-19T19:09:45.443Z,87.10
2023-02-19T19:10:45.136Z,87.61
2023-02-19T19:11:45.089Z,87.51
2023-02-19T19:12:45.067Z,87.51
2023-02-19T19:13:45.078Z,87.40
2023-02-19T19:14:45.058Z,87.71
2023-02-19T19:15:45.128Z,87.71
2023-02-19T19:16:45.023Z,87.92
2023-02-19T19:17:45.003Z,87.82
2023-02-19T19:18:45.001Z,87.92
2023-02-19T19:19:45.012Z,87.92
2023-02-19T19:20:44.970Z,87.71
2023-02-19T19:21:44.982Z,87.51
2023-02-19T19:22:44.952Z,87.51
2023-02-19T19:23:44.934Z,87.40
2023-02-19T19:24:44.941Z,86.58
2023-02-19T19:25:44.915Z,85.55
2023-02-19T19:26:44.902Z,85.35
2023-02-19T19:27:44.883Z,85.35
2023-02-19T19:28:44.864Z,85.55
2023-02-19T19:29:44.900Z,85.55
2023-02-19T19:30:44.864Z,85.14
2023-02-19T19:31:44.977Z,85.35
2023-02-19T19:32:45.207Z,85.14
2023-02-19T19:33:44.808Z,85.55
2023-02-19T19:34:44.787Z,85.14
2023-02-19T19:35:44.804Z,85.04
2023-02-19T19:36:44.767Z,85.39
2023-02-19T19:37:44.758Z,85.49
2023-02-19T19:38:44.727Z,85.28
2023-02-19T19:39:44.740Z,84.98
2023-02-19T19:40:44.723Z,84.88
2023-02-19T19:41:44.701Z,84.67
2023-02-19T19:42:44.836Z,84.36
2023-02-19T19:43:44.667Z,84.56
2023-02-19T19:44:44.669Z,84.36
2023-02-19T19:45:44.644Z,84.36
2023-02-19T19:46:44.636Z,84.36
2023-02-19T19:47:44.641Z,84.56
2023-02-19T19:48:44.596Z,84.47
2023-02-19T19:49:44.605Z,84.16
2023-02-19T19:50:45.006Z,84.16
2023-02-19T19:51:44.568Z,84.36
2023-02-19T19:52:44.544Z,84.05
2023-02-19T19:53:44.551Z,83.95
2023-02-19T19:54:44.528Z,83.95
2023-02-19T19:55:44.546Z,84.26
2023-02-19T19:56:44.499Z,83.95
2023-02-19T19:57:44.503Z,84.16
2023-02-19T19:58:44.488Z,83.85
2023-02-19T19:59:44.484Z,84.05
2023-02-19T20:00:44.442Z,83.95
2023-02-19T20:01:44.509Z,83.75
2023-02-19T20:02:44.463Z,83.75
2023-02-19T20:03:44.402Z,83.85
2023-02-19T20:04:44.440Z,83.64
2023-02-19T20:05:44.380Z,83.75
2023-02-19T20:06:44.384Z,83.64
2023-02-19T20:07:44.358Z,83.75
2023-02-19T20:08:44.371Z,83.75
2023-02-19T20:09:44.350Z,83.89
2023-02-19T20:10:45.455Z,83.68
2023-02-19T20:11:44.301Z,83.58
2023-02-19T20:12:44.331Z,83.68
2023-02-19T20:13:44.276Z,83.89
2023-02-19T20:14:44.282Z,83.89
2023-02-19T20:15:44.354Z,83.58
2023-02-19T20:16:44.787Z,83.78
2023-02-19T20:17:44.231Z,83.68
2023-02-19T20:18:44.216Z,83.58
2023-02-19T20:19:44.205Z,84.09
2023-02-19T20:20:44.206Z,84.13
2023-02-19T20:21:44.174Z,84.34
2023-02-19T20:22:44.181Z,84.54
2023-02-19T20:23:44.148Z,84.85
2023-02-19T20:24:44.177Z,85.06
2023-02-19T20:25:44.140Z,85.16
2023-02-19T20:26:44.107Z,85.10
2023-02-19T20:27:44.113Z,85.20
2023-02-19T20:28:44.113Z,85.30
2023-02-19T20:29:44.066Z,85.20
2023-02-19T20:30:44.105Z,85.30
2023-02-19T20:31:44.126Z,85.30
2023-02-19T20:32:44.061Z,85.41
2023-02-19T20:33:44.045Z,85.41
2023-02-19T20:34:43.995Z,85.71
2023-02-19T20:35:44.030Z,85.82
2023-02-19T20:36:43.982Z,85.96
2023-02-19T20:37:44.002Z,86.06
2023-02-19T20:38:43.946Z,86.16
2023-02-19T20:39:43.938Z,86.47
2023-02-19T20:40:43.939Z,86.68
2023-02-19T20:41:43.926Z,86.79
2023-02-19T20:42:43.905Z,86.99
2023-02-19T20:43:43.896Z,87.19
2023-02-19T20:44:43.880Z,87.34
2023-02-19T20:45:43.882Z,87.54
2023-02-19T20:46:43.922Z,87.65
2023-02-19T20:47:43.840Z,87.75
2023-02-19T20:48:43.828Z,87.85
2023-02-19T20:49:43.823Z,87.96
2023-02-19T20:50:43.817Z,88.06
2023-02-19T20:51:43.796Z,88.26
2023-02-19T20:52:43.788Z,88.26
2023-02-19T20:53:43.787Z,88.37
2023-02-19T20:54:43.758Z,88.57
2023-02-19T20:55:43.774Z,88.62
2023-02-19T20:56:43.716Z,88.72
2023-02-19T20:57:43.709Z,88.82
2023-02-19T20:58:43.695Z,88.92
2023-02-19T20:59:43.706Z,88.92
2023-02-19T21:00:43.675Z,89.03
2023-02-19T21:01:43.695Z,89.03
2023-02-19T21:02:43.696Z,89.13
2023-02-19T21:03:43.636Z,89.03
2023-02-19T21:04:43.642Z,89.03
2023-02-19T21:05:43.768Z,89.13
2023-02-19T21:06:43.600Z,89.23
2023-02-19T21:07:43.605Z,89.34
2023-02-19T21:08:43.586Z,89.44
2023-02-19T21:09:43.561Z,89.54
2023-02-19T21:10:43.561Z,89.75
2023-02-19T21:11:43.537Z,90.00
2023-02-19T21:12:43.519Z,90.10
2023-02-19T21:13:43.506Z,90.10
2023-02-19T21:14:43.488Z,90.20
2023-02-19T21:15:43.550Z,90.20
2023-02-19T21:16:43.465Z,90.20
2023-02-19T21:17:43.455Z,90.20
2023-02-19T21:18:43.432Z,90.20
2023-02-19T21:19:43.442Z,90.31
2023-02-19T21:20:43.416Z,90.31
2023-02-19T21:21:43.426Z,90.51
2023-02-19T21:22:43.383Z,90.41
2023-02-19T21:23:43.420Z,90.51
2023-02-19T21:24:43.374Z,90.41
2023-02-19T21:25:43.355Z,90.51
2023-02-19T21:26:43.381Z,90.51
2023-02-19T21:27:43.320Z,90.61
2023-02-19T21:28:43.309Z,90.61
2023-02-19T21:29:43.298Z,90.61
2023-02-19T21:30:43.347Z,90.61
2023-02-19T21:31:43.348Z,90.61
2023-02-19T21:32:43.246Z,90.61
2023-02-19T21:33:43.244Z,90.51
2023-02-19T21:34:43.259Z,90.61
2023-02-19T21:35:43.232Z,90.61
2023-02-19T21:36:43.209Z,90.61
2023-02-19T21:37:43.190Z,90.72
2023-02-19T21:38:43.188Z,90.86
2023-02-19T21:39:43.187Z,90.97
2023-02-19T21:40:43.145Z,91.07
2023-02-19T21:41:43.158Z,91.07
2023-02-19T21:42:43.121Z,91.17
2023-02-19T21:43:43.116Z,91.17
2023-02-19T21:44:43.298Z,91.17
2023-02-19T21:45:43.249Z,91.28
2023-02-19T21:46:43.099Z,91.38
2023-02-19T21:47:43.069Z,91.48
2023-02-19T21:48:43.072Z,91.48
2023-02-19T21:49:43.080Z,91.48
2023-02-19T21:50:43.031Z,91.38
2023-02-19T21:51:43.030Z,91.48
2023-02-19T21:52:43.162Z,91.48
2023-02-19T21:53:42.983Z,91.48
2023-02-19T21:54:42.985Z,91.48
2023-02-19T21:55:56.644Z,91.48
2023-02-19T21:56:43.005Z,91.48
2023-02-19T21:57:42.933Z,91.63
2023-02-19T21:58:42.916Z,91.63
2023-02-19T21:59:42.934Z,91.73
2023-02-19T22:00:42.921Z,91.94
2023-02-19T22:01:42.936Z,92.04
2023-02-19T22:02:42.869Z,92.14
2023-02-19T22:03:42.860Z,92.25
2023-02-19T22:04:42.868Z,92.35
2023-02-19T22:05:42.828Z,92.35
2023-02-19T22:06:42.840Z,92.46
2023-02-19T22:07:42.806Z,92.55
2023-02-19T22:08:42.829Z,92.55
2023-02-19T22:09:42.818Z,92.55
2023-02-19T22:10:42.808Z,92.55
2023-02-19T22:11:42.811Z,92.66
2023-02-19T22:12:42.770Z,92.76
2023-02-19T22:13:42.726Z,92.86
2023-02-19T22:14:42.714Z,92.97
2023-02-19T22:15:42.700Z,92.97
2023-02-19T22:16:42.835Z,93.12
2023-02-19T22:17:42.739Z,93.22
2023-02-19T22:18:42.668Z,93.32
2023-02-19T22:19:42.655Z,93.32
2023-02-19T22:20:42.629Z,93.43
2023-02-19T22:21:42.638Z,93.43
2023-02-19T22:22:42.600Z,93.53
2023-02-19T22:23:42.598Z,93.63
2023-02-19T22:24:42.585Z,93.63
2023-02-19T22:25:42.600Z,93.63
2023-02-19T22:26:42.573Z,93.73
2023-02-19T22:27:42.550Z,93.73
2023-02-19T22:28:42.561Z,93.84
2023-02-19T22:29:42.549Z,93.79
2023-02-19T22:30:42.582Z,93.79
2023-02-19T22:31:42.618Z,93.90
2023-02-19T22:32:42.544Z,94.04
2023-02-19T22:33:42.461Z,94.04
2023-02-19T22:34:42.476Z,94.15
2023-02-19T22:35:42.456Z,94.25
2023-02-19T22:36:42.440Z,94.25
2023-02-19T22:37:42.446Z,94.35
2023-02-19T22:38:42.408Z,94.46
2023-02-19T22:39:42.416Z,94.67
2023-02-19T22:40:42.379Z,94.77
2023-02-19T22:41:42.377Z,94.87
2023-02-19T22:42:42.357Z,95.12
2023-02-19T22:43:42.377Z,95.22
2023-02-19T22:44:42.348Z,95.32